Monterey, CA (93940)

7:00 PM PST on February 21, 2017 (GMT -0800)
Oak Grove, Monterey CA | | Change Station

Elev 60 ft 36.60 °N, 121.88 °W | Updated 8 seconds ago

Scattered Clouds
Scattered Clouds
54.5 °F
Feels Like 54.5 °F
N
5.4
Wind Variable Wind from SW
Gusts 11.0 mph

Today
High -- | Low -- °F
--% Chance of Precip.
Yesterday
High -- | Low -- °F
Precip. -- in
Pressure 30.27 in
Visibility 10.0 miles
Clouds Scattered Clouds 2200 ft
Scattered Clouds 5000 ft
Dew Point 50 °F
Humidity 87%
Rainfall 0.05 in
Snow Depth Not available.
6:47 AM 5:54 PM
Waning Crescent, 20% visible
METAR KMRY 220254Z 20005KT 10SM SCT022 SCT050 12/10 A3023 RMK AO2 SLP248 60005 T01220100 53008
Pressure 30.27 in
Visibility 10.0 miles
Clouds Scattered Clouds 2200 ft
Scattered Clouds 5000 ft
Dew Point 50 °F
Humidity 87%
Rainfall 0.05 in
Snow Depth Not available.
6:47 AM 5:54 PM
Waning Crescent, 20% visible
METAR KMRY 220254Z 20005KT 10SM SCT022 SCT050 12/10 A3023 RMK AO2 SLP248 60005 T01220100 53008

Get Your Daily Forecast Email!

Thanks for signing up!

Be on the lookout for a verification email in your inbox.

You'll start receiving the daily forecast at 8 AM.

×

10-Day Weather Forecast

Almanac

Astronomy

Feb. 21, 2017 Rise Set
Actual Time
Civil Twilight
Nautical Twilight
Astronomical Twilight
Moon
Length of Visible Light
Length of Day
Tomorrow will be .
, % of the Moon is Illuminated

Today's Extremes

State Highs State Lows

Community

WunderPhotos

Upload Photos

1,962,540 photos uploaded!

WunderBlog® & News

Nearby

Air Quality

  Air Quality AQ Index Pollutant
Not available.

Snow Depth

Station Depth Elevation

Earthquake Activity

City Distance Mag. Time & Date
Minimum magnitude displayed is 2.5.

Coastal Water Temperatures

Place Temperature

Stations

Nearby Weather Stations

Station Location Temp. Windchill Dew Point Humidity Wind Precip. Elev Updated Type
                   

Watches & Warnings

There are currently no watches in effect.